createdAt,value
2023-01-19T00:00:30.099Z,78.90
2023-01-19T00:02:56.744Z,78.95
2023-01-19T00:05:23.298Z,78.73
2023-01-19T00:10:34.169Z,78.60
2023-01-19T00:13:01.144Z,78.71
2023-01-19T00:15:29.184Z,78.41
2023-01-19T00:17:55.779Z,78.32
2023-01-19T00:20:22.354Z,78.28
2023-01-19T00:22:51.005Z,78.17
2023-01-19T00:25:17.764Z,78.17
2023-01-19T00:27:49.374Z,78.13
2023-01-19T00:30:16.486Z,78.15
2023-01-19T00:32:43.052Z,78.17
2023-01-19T00:35:09.660Z,77.94
2023-01-19T00:37:36.192Z,77.90
2023-01-19T00:40:02.781Z,77.88
2023-01-19T00:42:41.069Z,77.76
2023-01-19T00:45:10.068Z,77.55
2023-01-19T00:47:36.739Z,77.68
2023-01-19T00:50:03.557Z,77.58
2023-01-19T00:52:30.137Z,77.55
2023-01-19T00:54:56.693Z,77.58
2023-01-19T00:57:23.575Z,77.85
2023-01-19T00:59:50.326Z,77.51
2023-01-19T01:02:17.260Z,77.55
2023-01-19T01:04:43.922Z,77.60
2023-01-19T01:07:10.600Z,77.68
2023-01-19T01:09:38.170Z,77.91
2023-01-19T01:12:05.872Z,77.56
2023-01-19T01:14:32.859Z,77.52
2023-01-19T01:17:00.677Z,77.60
2023-01-19T01:19:27.468Z,77.27
2023-01-19T01:21:54.164Z,77.59
2023-01-19T01:24:20.843Z,77.73
2023-01-19T01:26:47.509Z,77.56
2023-01-19T01:29:14.108Z,77.50
2023-01-19T01:31:41.010Z,77.70
2023-01-19T01:34:08.277Z,77.54
2023-01-19T01:36:35.591Z,77.64
2023-01-19T01:39:02.506Z,77.44
2023-01-19T01:41:29.143Z,77.20
2023-01-19T01:44:02.055Z,76.89
2023-01-19T01:46:31.171Z,77.09
2023-01-19T01:49:08.645Z,77.39
2023-01-19T01:51:42.297Z,77.06
2023-01-19T01:54:19.000Z,77.20
2023-01-19T01:56:49.321Z,77.06
2023-01-19T01:59:29.604Z,77.48
2023-01-19T02:02:18.192Z,77.03
2023-01-19T02:04:56.157Z,76.95
2023-01-19T02:07:52.107Z,77.26
2023-01-19T02:10:37.482Z,77.17
2023-01-19T02:13:22.568Z,77.17
2023-01-19T02:15:52.679Z,77.05
2023-01-19T02:18:24.460Z,77.17
2023-01-19T02:21:00.336Z,77.17
2023-01-19T02:23:55.331Z,77.08
2023-01-19T02:26:36.416Z,77.35
2023-01-19T02:29:08.752Z,77.13
2023-01-19T02:31:39.045Z,77.31
2023-01-19T02:34:08.445Z,77.45
2023-01-19T02:36:39.915Z,77.50
2023-01-19T02:39:09.750Z,77.57
2023-01-19T02:41:42.725Z,77.39
2023-01-19T02:44:11.085Z,77.76
2023-01-19T02:46:38.548Z,77.44
2023-01-19T02:49:05.250Z,77.65
2023-01-19T02:51:32.300Z,77.59
2023-01-19T02:54:04.687Z,77.56
2023-01-19T02:56:34.848Z,77.84
2023-01-19T02:59:25.855Z,77.46
2023-01-19T03:02:08.968Z,77.55
2023-01-19T03:04:57.515Z,77.67
2023-01-19T03:08:01.445Z,77.77
2023-01-19T03:10:31.033Z,77.62
2023-01-19T03:13:13.816Z,77.56
2023-01-19T03:16:23.785Z,77.85
2023-01-19T03:19:08.874Z,77.53
2023-01-19T03:21:39.305Z,77.51
2023-01-19T03:24:08.524Z,77.45
2023-01-19T03:26:43.124Z,77.63
2023-01-19T03:29:13.613Z,77.89
2023-01-19T03:31:43.390Z,78.16
2023-01-19T03:34:13.703Z,78.16
2023-01-19T03:36:51.652Z,78.33
2023-01-19T03:39:22.692Z,77.97
2023-01-19T03:41:53.854Z,78.23
2023-01-19T03:44:20.439Z,78.28
2023-01-19T03:46:48.111Z,78.55
2023-01-19T03:49:14.813Z,78.41
2023-01-19T03:51:41.524Z,78.16
2023-01-19T03:54:10.355Z,78.35
2023-01-19T03:56:37.285Z,78.04
2023-01-19T03:59:05.674Z,78.11
2023-01-19T04:01:32.787Z,77.71
2023-01-19T04:03:59.431Z,77.60
2023-01-19T04:06:27.083Z,77.84
2023-01-19T04:08:53.945Z,78.34
2023-01-19T04:11:20.881Z,78.11
2023-01-19T04:13:47.941Z,78.00
2023-01-19T04:16:19.898Z,77.93
2023-01-19T04:18:47.415Z,78.03
2023-01-19T04:21:14.573Z,78.23
2023-01-19T04:23:41.168Z,78.00
2023-01-19T04:26:09.222Z,77.72
2023-01-19T04:28:37.254Z,77.84
2023-01-19T04:31:07.895Z,77.96
2023-01-19T04:33:35.099Z,78.15
2023-01-19T04:36:02.260Z,77.96
2023-01-19T04:38:28.851Z,78.19
2023-01-19T04:40:55.475Z,78.24
2023-01-19T04:43:23.361Z,78.32
2023-01-19T04:45:50.882Z,78.37
2023-01-19T04:48:18.594Z,78.61
2023-01-19T04:50:45.281Z,78.98
2023-01-19T04:53:13.865Z,79.11
2023-01-19T04:55:40.739Z,78.95
2023-01-19T04:58:07.359Z,79.12
2023-01-19T05:00:34.114Z,79.40
2023-01-19T05:03:01.610Z,78.96
2023-01-19T05:05:28.688Z,79.25
2023-01-19T05:07:55.570Z,79.15
2023-01-19T05:10:22.311Z,79.32
2023-01-19T05:12:48.933Z,79.35
2023-01-19T05:15:15.508Z,79.59
2023-01-19T05:17:42.066Z,79.88
2023-01-19T05:20:12.533Z,79.71
2023-01-19T05:22:40.005Z,80.14
2023-01-19T05:25:08.816Z,80.02
2023-01-19T05:27:36.643Z,80.13
2023-01-19T05:30:05.096Z,80.13
2023-01-19T05:32:31.660Z,80.06
2023-01-19T05:34:58.309Z,80.40
2023-01-19T05:37:25.049Z,80.13
2023-01-19T05:39:51.861Z,80.33
2023-01-19T05:42:18.401Z,80.40
2023-01-19T05:44:44.972Z,80.29
2023-01-19T05:47:11.824Z,80.67
2023-01-19T05:49:38.414Z,80.23
2023-01-19T05:52:04.995Z,80.26
2023-01-19T05:54:31.583Z,80.17
2023-01-19T05:56:58.324Z,81.62
2023-01-19T05:59:24.995Z,82.09
2023-01-19T06:01:52.489Z,82.22
2023-01-19T06:04:20.166Z,79.48
2023-01-19T06:06:50.388Z,72.54
2023-01-19T06:09:17.794Z,71.84
2023-01-19T06:11:45.309Z,72.77
2023-01-19T06:14:12.230Z,73.31
2023-01-19T06:16:39.106Z,74.20
2023-01-19T06:19:06.096Z,75.31
2023-01-19T06:21:34.364Z,75.46
2023-01-19T06:24:01.085Z,75.69
2023-01-19T06:26:27.693Z,75.65
2023-01-19T06:28:55.239Z,75.90
2023-01-19T06:31:22.016Z,76.18
2023-01-19T06:33:48.700Z,76.53
2023-01-19T06:36:15.306Z,77.08
2023-01-19T06:38:41.998Z,76.90
2023-01-19T06:41:08.603Z,77.03
2023-01-19T06:43:35.314Z,77.15
2023-01-19T06:46:02.307Z,77.32
2023-01-19T06:48:28.928Z,77.42
2023-01-19T06:50:57.806Z,77.51
2023-01-19T06:53:27.926Z,77.58
2023-01-19T06:55:59.296Z,77.76
2023-01-19T06:58:26.143Z,77.82
2023-01-19T07:00:52.935Z,77.85
2023-01-19T07:03:22.111Z,77.93
2023-01-19T07:05:56.853Z,77.96
2023-01-19T07:08:24.206Z,77.69
2023-01-19T07:11:25.492Z,77.88
2023-01-19T07:13:38.576Z,77.73
2023-01-19T07:16:08.320Z,77.40
2023-01-19T07:18:35.713Z,77.50
2023-01-19T07:21:02.425Z,77.33
2023-01-19T07:23:31.820Z,77.46
2023-01-19T07:26:00.953Z,77.45
2023-01-19T07:28:31.711Z,77.26
2023-01-19T07:30:58.517Z,77.18
2023-01-19T07:33:26.245Z,77.18
2023-01-19T07:35:53.565Z,77.23
2023-01-19T07:38:20.656Z,76.84
2023-01-19T07:40:47.406Z,76.86
2023-01-19T07:43:14.651Z,76.91
2023-01-19T07:45:41.341Z,77.32
2023-01-19T07:48:07.943Z,77.00
2023-01-19T07:50:34.601Z,76.92
2023-01-19T07:53:08.870Z,77.19
2023-01-19T07:55:35.850Z,77.14
2023-01-19T07:58:06.515Z,76.84
2023-01-19T08:00:34.407Z,77.18
2023-01-19T08:03:03.375Z,77.16
2023-01-19T08:05:30.553Z,77.25
2023-01-19T08:07:58.168Z,76.86
2023-01-19T08:10:26.813Z,76.99
2023-01-19T08:14:02.148Z,76.56
2023-01-19T08:16:29.003Z,76.51
2023-01-19T08:18:55.560Z,76.55
2023-01-19T08:21:22.241Z,76.64
2023-01-19T08:23:55.931Z,76.41
2023-01-19T08:26:29.670Z,75.96
2023-01-19T08:28:59.058Z,76.26
2023-01-19T08:31:26.458Z,76.38
2023-01-19T08:33:53.209Z,76.53
2023-01-19T08:36:21.385Z,76.14
2023-01-19T08:38:48.573Z,76.30
2023-01-19T08:41:17.079Z,76.01
2023-01-19T08:43:45.496Z,75.92
2023-01-19T08:46:12.701Z,76.31
2023-01-19T08:48:40.075Z,76.07
2023-01-19T08:51:06.798Z,75.92
2023-01-19T08:53:34.186Z,76.41
2023-01-19T08:56:02.072Z,76.44
2023-01-19T08:58:29.139Z,76.47
2023-01-19T09:00:56.313Z,76.26
2023-01-19T09:03:23.190Z,76.46
2023-01-19T09:05:50.441Z,76.42
2023-01-19T09:08:17.457Z,76.31
2023-01-19T09:10:47.007Z,76.49
2023-01-19T09:13:14.516Z,75.81
2023-01-19T09:15:43.287Z,76.28
2023-01-19T09:18:16.692Z,76.38
2023-01-19T09:20:45.357Z,75.47
2023-01-19T09:23:13.863Z,75.61
2023-01-19T09:25:42.011Z,75.64
2023-01-19T09:28:10.938Z,75.41
2023-01-19T09:30:39.447Z,75.68
2023-01-19T09:33:08.149Z,75.40
2023-01-19T09:35:35.202Z,75.51
2023-01-19T09:38:02.152Z,75.52
2023-01-19T09:40:29.335Z,75.88
2023-01-19T09:43:11.868Z,75.55
2023-01-19T09:45:48.178Z,75.90
2023-01-19T09:48:52.369Z,75.04
2023-01-19T09:51:23.290Z,75.47
2023-01-19T09:53:56.481Z,75.15
2023-01-19T09:56:24.166Z,74.71
2023-01-19T09:58:51.638Z,73.84
2023-01-19T10:01:52.630Z,74.03
2023-01-19T10:04:32.073Z,73.99
2023-01-19T10:07:23.513Z,74.36
2023-01-19T10:09:59.045Z,73.44
2023-01-19T10:12:37.860Z,73.50
2023-01-19T10:15:16.527Z,73.61
2023-01-19T10:18:17.646Z,73.13
2023-01-19T10:20:50.127Z,72.95
2023-01-19T10:23:37.266Z,72.87
2023-01-19T10:26:12.825Z,72.66
2023-01-19T10:28:40.803Z,72.71
2023-01-19T10:31:09.877Z,72.39
2023-01-19T10:33:37.099Z,72.56
2023-01-19T10:36:17.491Z,72.66
2023-01-19T10:38:44.358Z,72.53
2023-01-19T10:41:39.398Z,71.91
2023-01-19T10:44:07.585Z,71.96
2023-01-19T10:46:37.396Z,71.89
2023-01-19T10:49:04.952Z,72.10
2023-01-19T10:51:31.596Z,71.69
2023-01-19T10:54:01.908Z,71.41
2023-01-19T10:56:35.533Z,71.70
2023-01-19T10:59:05.168Z,71.42
2023-01-19T11:01:36.014Z,71.45
2023-01-19T11:04:21.803Z,71.88
2023-01-19T11:06:48.405Z,72.04
2023-01-19T11:09:20.985Z,71.63
2023-01-19T11:11:52.926Z,71.70
2023-01-19T11:14:23.334Z,71.47
2023-01-19T11:16:58.137Z,71.41
2023-01-19T11:19:32.458Z,71.44
2023-01-19T11:22:16.763Z,71.26
2023-01-19T11:24:44.230Z,70.86
2023-01-19T11:27:10.830Z,71.08
2023-01-19T11:29:38.983Z,71.10
2023-01-19T11:32:22.070Z,71.16
2023-01-19T11:34:49.585Z,71.05
2023-01-19T11:37:16.107Z,71.00
2023-01-19T11:39:49.327Z,71.44
2023-01-19T11:42:17.577Z,71.24
2023-01-19T11:45:23.309Z,71.22
2023-01-19T11:47:51.809Z,71.35
2023-01-19T11:50:29.744Z,71.61
2023-01-19T11:53:24.258Z,71.77
2023-01-19T11:56:02.932Z,71.28
2023-01-19T11:58:31.534Z,71.26
2023-01-19T12:01:01.835Z,71.24
2023-01-19T12:03:54.599Z,70.77
2023-01-19T12:06:47.841Z,70.19
2023-01-19T12:09:22.494Z,70.32
2023-01-19T12:12:05.092Z,70.78
2023-01-19T12:14:35.137Z,70.68
2023-01-19T12:17:05.785Z,70.77
2023-01-19T12:19:55.027Z,70.75
2023-01-19T12:22:24.025Z,70.61
2023-01-19T12:25:02.988Z,70.91
2023-01-19T12:27:44.363Z,70.50
2023-01-19T12:30:23.789Z,69.88
2023-01-19T12:32:53.857Z,70.12
2023-01-19T12:35:54.699Z,70.48
2023-01-19T12:38:30.075Z,70.08
2023-01-19T12:41:16.665Z,70.11
2023-01-19T12:43:43.426Z,71.16
2023-01-19T12:46:31.053Z,71.49
2023-01-19T12:49:19.741Z,71.58
2023-01-19T12:51:46.884Z,71.38
2023-01-19T12:54:32.698Z,71.32
2023-01-19T12:57:06.410Z,71.41
2023-01-19T12:59:35.418Z,71.22
2023-01-19T13:02:20.026Z,71.50
2023-01-19T13:05:28.535Z,71.55
2023-01-19T13:08:08.386Z,71.74
2023-01-19T13:10:59.372Z,71.39
2023-01-19T13:13:29.050Z,71.78
2023-01-19T13:15:57.956Z,71.51
2023-01-19T13:18:27.611Z,71.26
2023-01-19T13:21:12.567Z,71.24
2023-01-19T13:23:51.136Z,71.54
2023-01-19T13:26:20.884Z,71.32
2023-01-19T13:28:52.341Z,71.47
2023-01-19T13:31:19.897Z,71.95
2023-01-19T13:33:50.969Z,71.57
2023-01-19T13:36:38.420Z,71.60
2023-01-19T13:39:12.329Z,71.86
2023-01-19T13:41:41.224Z,72.03
2023-01-19T13:44:15.465Z,71.68
2023-01-19T13:46:42.933Z,72.02
2023-01-19T13:49:19.137Z,71.98
2023-01-19T13:51:45.730Z,71.50
2023-01-19T13:54:17.762Z,71.75
2023-01-19T13:56:50.360Z,71.66
2023-01-19T13:59:16.976Z,71.62
2023-01-19T14:01:46.033Z,71.28
2023-01-19T14:04:32.449Z,70.90
2023-01-19T14:07:02.913Z,71.12
2023-01-19T14:09:29.568Z,71.46
2023-01-19T14:12:11.084Z,71.06
2023-01-19T14:14:38.580Z,71.12
2023-01-19T14:17:18.192Z,71.09
2023-01-19T14:19:53.228Z,71.17
2023-01-19T14:22:19.970Z,71.22
2023-01-19T14:24:46.887Z,71.03
2023-01-19T14:27:22.697Z,71.22
2023-01-19T14:29:53.567Z,71.08
2023-01-19T14:32:25.448Z,71.05
2023-01-19T14:35:13.185Z,70.98
2023-01-19T14:37:50.915Z,71.02
2023-01-19T14:40:20.433Z,71.24
2023-01-19T14:43:03.169Z,71.28
2023-01-19T14:45:36.983Z,70.88
2023-01-19T14:48:07.021Z,71.22
2023-01-19T14:50:42.838Z,70.83
2023-01-19T14:53:25.733Z,70.32
2023-01-19T14:56:02.403Z,70.40
2023-01-19T14:58:31.410Z,70.49
2023-01-19T15:00:58.519Z,71.26
2023-01-19T15:03:38.569Z,70.84
2023-01-19T15:06:16.181Z,71.08
2023-01-19T15:08:45.010Z,71.13
2023-01-19T15:11:26.727Z,71.41
2023-01-19T15:13:55.226Z,71.55
2023-01-19T15:16:23.255Z,71.34
2023-01-19T15:18:49.838Z,71.17
2023-01-19T15:21:23.279Z,71.00
2023-01-19T15:23:50.382Z,70.69
2023-01-19T15:26:23.132Z,71.01
2023-01-19T15:28:50.625Z,71.47
2023-01-19T15:31:19.812Z,71.52
2023-01-19T15:33:46.956Z,71.15
2023-01-19T15:36:17.841Z,71.62
2023-01-19T15:38:44.797Z,71.49
2023-01-19T15:41:14.004Z,71.52
2023-01-19T15:43:40.691Z,71.18
2023-01-19T15:46:07.873Z,71.55
2023-01-19T15:48:34.692Z,71.66
2023-01-19T15:51:01.271Z,71.31
2023-01-19T15:53:27.876Z,71.64
2023-01-19T15:55:56.895Z,71.60
2023-01-19T15:58:24.333Z,71.58
2023-01-19T16:00:55.836Z,71.83
2023-01-19T16:03:24.635Z,71.60
2023-01-19T16:05:51.575Z,71.53
2023-01-19T16:08:18.352Z,71.77
2023-01-19T16:10:44.959Z,72.00
2023-01-19T16:13:11.922Z,72.00
2023-01-19T16:15:40.082Z,71.99
2023-01-19T16:18:06.717Z,72.23
2023-01-19T16:20:33.332Z,72.09
2023-01-19T16:23:13.819Z,72.36
2023-01-19T16:25:41.348Z,72.50
2023-01-19T16:28:08.425Z,72.25
2023-01-19T16:30:35.298Z,71.97
2023-01-19T16:33:01.977Z,71.75
2023-01-19T16:35:28.624Z,71.83
2023-01-19T16:37:55.208Z,71.74
2023-01-19T16:40:21.936Z,71.81
2023-01-19T16:42:48.580Z,71.70
2023-01-19T16:45:15.211Z,72.45
2023-01-19T16:47:41.873Z,71.99
2023-01-19T16:50:11.903Z,72.49
2023-01-19T16:52:38.819Z,72.67
2023-01-19T16:55:09.417Z,72.77
2023-01-19T16:57:38.886Z,72.92
2023-01-19T17:00:09.381Z,72.44
2023-01-19T17:02:36.404Z,72.64
2023-01-19T17:05:03.025Z,72.79
2023-01-19T17:07:29.626Z,72.63
2023-01-19T17:09:56.261Z,72.40
2023-01-19T17:12:22.890Z,72.56
2023-01-19T17:14:49.505Z,72.66
2023-01-19T17:17:16.061Z,72.84
2023-01-19T17:19:42.843Z,72.80
2023-01-19T17:22:09.382Z,72.56
2023-01-19T17:24:35.959Z,72.55
2023-01-19T17:27:02.539Z,72.70
2023-01-19T17:29:29.173Z,72.57
2023-01-19T17:31:55.722Z,73.00
2023-01-19T17:34:22.309Z,72.98
2023-01-19T17:36:51.233Z,72.89
2023-01-19T17:39:18.626Z,72.86
2023-01-19T17:41:45.286Z,72.52
2023-01-19T17:44:12.059Z,73.01
2023-01-19T17:46:38.868Z,73.04
2023-01-19T17:49:07.395Z,72.98
2023-01-19T17:51:34.696Z,73.01
2023-01-19T17:54:01.341Z,73.14
2023-01-19T17:56:30.437Z,72.84
2023-01-19T17:58:58.057Z,73.17
2023-01-19T18:01:27.326Z,72.95
2023-01-19T18:03:54.264Z,73.21
2023-01-19T18:06:21.683Z,72.69
2023-01-19T18:08:49.537Z,72.76
2023-01-19T18:11:17.958Z,73.15
2023-01-19T18:13:45.842Z,72.96
2023-01-19T18:16:34.503Z,72.66
2023-01-19T18:19:01.197Z,72.81
2023-01-19T18:21:28.872Z,72.69
2023-01-19T18:24:01.803Z,72.45
2023-01-19T18:26:28.774Z,72.94
2023-01-19T18:28:56.821Z,72.88
2023-01-19T18:31:24.680Z,72.63
2023-01-19T18:33:51.260Z,73.03
2023-01-19T18:36:18.211Z,72.89
2023-01-19T18:38:45.464Z,72.75
2023-01-19T18:41:15.008Z,73.01
2023-01-19T18:43:41.964Z,72.98
2023-01-19T18:46:09.605Z,72.52
2023-01-19T18:48:37.720Z,72.35
2023-01-19T18:51:09.520Z,72.78
2023-01-19T18:53:36.393Z,72.67
2023-01-19T18:56:03.627Z,73.07
2023-01-19T18:58:31.791Z,73.69
2023-01-19T19:01:00.123Z,73.58
2023-01-19T19:03:27.164Z,73.75
2023-01-19T19:05:53.827Z,74.43
2023-01-19T19:08:20.470Z,74.12
2023-01-19T19:10:47.109Z,74.05
2023-01-19T19:13:17.726Z,74.47
2023-01-19T19:15:44.513Z,74.36
2023-01-19T19:18:14.196Z,74.63
2023-01-19T19:20:44.425Z,74.98
2023-01-19T19:23:11.940Z,74.88
2023-01-19T19:25:38.795Z,75.11
2023-01-19T19:28:05.805Z,75.21
2023-01-19T19:30:34.624Z,74.93
2023-01-19T19:33:01.340Z,75.19
2023-01-19T19:35:27.965Z,75.16
2023-01-19T19:37:57.565Z,75.22
2023-01-19T19:40:28.495Z,75.51
2023-01-19T19:42:57.591Z,75.65
2023-01-19T19:45:25.311Z,75.59
2023-01-19T19:47:51.874Z,75.24
2023-01-19T19:50:18.636Z,75.40
2023-01-19T19:52:45.325Z,75.50
2023-01-19T19:55:12.715Z,75.74
2023-01-19T19:57:39.469Z,76.09
2023-01-19T20:00:06.756Z,76.26
2023-01-19T20:02:33.350Z,76.64
2023-01-19T20:05:00.165Z,76.94
2023-01-19T20:07:26.769Z,77.61
2023-01-19T20:09:55.092Z,77.45
2023-01-19T20:12:22.196Z,77.87
2023-01-19T20:14:48.877Z,77.90
2023-01-19T20:17:15.644Z,78.13
2023-01-19T20:19:43.852Z,78.23
2023-01-19T20:22:10.395Z,77.98
2023-01-19T20:24:37.053Z,78.46
2023-01-19T20:27:03.925Z,78.16
2023-01-19T20:29:30.685Z,78.05
2023-01-19T20:31:57.244Z,78.47
2023-01-19T20:34:29.102Z,78.20
2023-01-19T20:36:56.578Z,78.14
2023-01-19T20:39:24.551Z,78.24
2023-01-19T20:41:52.696Z,78.05
2023-01-19T20:44:22.365Z,78.11
2023-01-19T20:46:49.851Z,77.83
2023-01-19T20:49:16.737Z,78.16
2023-01-19T20:51:45.277Z,77.89
2023-01-19T20:54:13.467Z,78.25
2023-01-19T20:56:41.767Z,78.03
2023-01-19T20:59:10.323Z,78.04
2023-01-19T21:01:37.298Z,78.24
2023-01-19T21:04:04.132Z,78.23
2023-01-19T21:06:30.718Z,78.03
2023-01-19T21:08:57.683Z,78.17
2023-01-19T21:11:25.047Z,78.06
2023-01-19T21:13:55.691Z,77.99
2023-01-19T21:16:24.397Z,78.08
2023-01-19T21:18:51.304Z,77.86
2023-01-19T21:21:29.816Z,78.05
2023-01-19T21:23:58.237Z,77.97
2023-01-19T21:26:24.866Z,77.95
2023-01-19T21:28:51.580Z,78.10
2023-01-19T21:31:18.421Z,78.05
2023-01-19T21:33:45.178Z,77.76
2023-01-19T21:36:11.864Z,77.71
2023-01-19T21:38:39.027Z,78.06
2023-01-19T21:41:12.003Z,77.92
2023-01-19T21:43:41.784Z,78.02
2023-01-19T21:46:14.379Z,78.01
2023-01-19T21:48:42.192Z,77.85
2023-01-19T21:51:09.115Z,78.01
2023-01-19T21:53:35.733Z,78.20
2023-01-19T21:56:02.368Z,78.02
2023-01-19T21:58:28.964Z,77.92
2023-01-19T22:01:00.616Z,78.17
2023-01-19T22:03:28.496Z,78.46
2023-01-19T22:05:58.447Z,78.06
2023-01-19T22:08:25.136Z,78.07
2023-01-19T22:10:51.747Z,78.09
2023-01-19T22:13:18.461Z,77.94
2023-01-19T22:15:45.031Z,78.65
2023-01-19T22:18:11.663Z,78.21
2023-01-19T22:20:38.328Z,78.33
2023-01-19T22:23:04.946Z,78.45
2023-01-19T22:25:33.076Z,78.31
2023-01-19T22:27:59.729Z,78.60
2023-01-19T22:30:26.593Z,78.50
2023-01-19T22:32:53.482Z,78.66
2023-01-19T22:35:21.267Z,78.76
2023-01-19T22:37:47.967Z,78.51
2023-01-19T22:40:14.599Z,78.35
2023-01-19T22:42:45.284Z,78.82
2023-01-19T22:45:12.107Z,78.89
2023-01-19T22:47:38.909Z,79.03
2023-01-19T22:50:06.010Z,78.81
2023-01-19T22:52:32.614Z,79.14
2023-01-19T22:55:00.032Z,78.86
2023-01-19T22:57:26.583Z,79.21
2023-01-19T22:59:53.165Z,79.17
2023-01-19T23:02:20.895Z,79.07
2023-01-19T23:04:47.732Z,78.96
2023-01-19T23:07:14.435Z,78.91
2023-01-19T23:09:41.064Z,79.32
2023-01-19T23:12:07.708Z,79.23
2023-01-19T23:14:34.716Z,79.27
2023-01-19T23:17:01.306Z,79.36
2023-01-19T23:19:27.846Z,79.34
2023-01-19T23:21:54.418Z,79.56
2023-01-19T23:24:21.057Z,79.69
2023-01-19T23:26:49.591Z,79.51
2023-01-19T23:29:16.225Z,79.97
2023-01-19T23:31:46.442Z,79.88
2023-01-19T23:34:13.654Z,79.99
2023-01-19T23:36:41.837Z,79.68
2023-01-19T23:39:20.323Z,79.90
2023-01-19T23:41:47.579Z,80.02
2023-01-19T23:44:14.726Z,80.02
2023-01-19T23:46:41.273Z,80.35
2023-01-19T23:49:07.954Z,80.30
2023-01-19T23:51:34.914Z,80.56
2023-01-19T23:54:01.616Z,80.71
2023-01-19T23:56:31.808Z,80.67
2023-01-19T23:59:04.667Z,80.54
